createdAt,value
2022-12-01T00:01:34.058Z,16.90
2022-12-01T00:04:02.700Z,18.02
2022-12-01T00:06:30.962Z,17.60
2022-12-01T00:09:20.116Z,17.60
2022-12-01T00:11:48.997Z,17.75
2022-12-01T00:14:17.863Z,17.77
2022-12-01T00:16:46.058Z,16.23
2022-12-01T00:19:14.520Z,16.87
2022-12-01T00:21:42.983Z,18.52
2022-12-01T00:24:13.216Z,18.77
2022-12-01T00:26:41.562Z,17.25
2022-12-01T00:29:10.321Z,17.70
2022-12-01T00:31:38.547Z,18.13
2022-12-01T00:34:11.310Z,18.10
2022-12-01T00:36:40.377Z,18.88
2022-12-01T00:39:09.334Z,18.65
2022-12-01T00:41:39.039Z,18.48
2022-12-01T00:44:07.563Z,18.07
2022-12-01T00:46:35.735Z,17.45
2022-12-01T00:49:05.966Z,18.08
2022-12-01T00:51:34.270Z,19.25
2022-12-01T00:54:02.586Z,18.15
2022-12-01T00:56:31.163Z,18.57
2022-12-01T00:59:01.334Z,20.30
2022-12-01T01:01:29.640Z,20.67
2022-12-01T01:03:59.122Z,19.30
2022-12-01T01:06:27.357Z,20.25
2022-12-01T01:08:55.985Z,20.13
2022-12-01T01:11:24.414Z,21.10
2022-12-01T01:13:53.072Z,19.88
2022-12-01T01:16:23.775Z,19.38
2022-12-01T01:18:52.366Z,19.13
2022-12-01T01:21:22.354Z,19.10
2022-12-01T01:23:51.763Z,18.75
2022-12-01T01:26:21.852Z,19.92
2022-12-01T01:28:51.476Z,18.65
2022-12-01T01:31:23.159Z,19.80
2022-12-01T01:33:52.071Z,20.07
2022-12-01T01:36:20.613Z,20.67
2022-12-01T01:38:51.483Z,19.48
2022-12-01T01:41:20.773Z,20.02
2022-12-01T01:43:51.573Z,20.88
2022-12-01T01:46:23.827Z,19.23
2022-12-01T01:48:56.393Z,19.50
2022-12-01T01:51:33.806Z,19.55
2022-12-01T01:54:07.389Z,17.55
2022-12-01T01:56:36.896Z,18.15
2022-12-01T01:59:05.656Z,17.63
2022-12-01T02:01:35.454Z,18.35
2022-12-01T02:04:04.825Z,17.92
2022-12-01T02:06:33.005Z,18.95
2022-12-01T02:09:01.903Z,17.95
2022-12-01T02:11:53.089Z,18.20
2022-12-01T02:14:40.148Z,18.55
2022-12-01T02:17:30.948Z,19.30
2022-12-01T02:20:31.510Z,18.52
2022-12-01T02:23:22.783Z,18.48
2022-12-01T02:26:02.987Z,19.50
2022-12-01T02:28:49.693Z,18.63
2022-12-01T02:31:24.866Z,17.27
2022-12-01T02:33:58.170Z,18.67
2022-12-01T02:36:35.418Z,18.15
2022-12-01T02:39:09.550Z,18.60
2022-12-01T02:41:41.440Z,18.70
2022-12-01T02:44:15.331Z,17.65
2022-12-01T02:46:48.552Z,17.13
2022-12-01T02:49:20.365Z,17.48
2022-12-01T02:51:50.133Z,16.33
2022-12-01T02:54:19.098Z,17.65
2022-12-01T02:56:47.869Z,17.67
2022-12-01T02:59:16.822Z,17.73
2022-12-01T03:01:57.842Z,18.17
2022-12-01T03:04:40.657Z,18.60
2022-12-01T03:07:19.179Z,19.02
2022-12-01T03:09:54.607Z,18.25
2022-12-01T03:12:30.570Z,18.65
2022-12-01T03:15:04.736Z,18.98
2022-12-01T03:17:40.161Z,18.03
2022-12-01T03:20:13.956Z,19.35
2022-12-01T03:22:48.333Z,19.45
2022-12-01T03:25:17.970Z,18.17
2022-12-01T03:28:19.266Z,19.05
2022-12-01T03:30:38.747Z,18.60
2022-12-01T03:33:14.141Z,18.95
2022-12-01T03:35:46.663Z,18.10
2022-12-01T03:38:20.097Z,18.35
2022-12-01T03:40:50.894Z,18.50
2022-12-01T03:43:23.063Z,18.77
2022-12-01T03:45:56.311Z,19.00
2022-12-01T03:48:27.872Z,18.92
2022-12-01T03:51:06.477Z,18.48
2022-12-01T03:53:40.506Z,19.33
2022-12-01T03:56:09.474Z,19.27
2022-12-01T03:58:41.404Z,19.48
2022-12-01T04:01:10.182Z,19.13
2022-12-01T04:03:39.929Z,20.50
2022-12-01T04:06:08.558Z,19.58
2022-12-01T04:08:37.554Z,18.73
2022-12-01T04:11:32.196Z,19.45
2022-12-01T04:14:00.421Z,18.02
2022-12-01T04:16:28.637Z,18.30
2022-12-01T04:18:58.578Z,19.85
2022-12-01T04:21:27.097Z,20.20
2022-12-01T04:24:01.606Z,19.70
2022-12-01T04:26:30.500Z,20.10
2022-12-01T04:29:00.011Z,17.90
2022-12-01T04:31:29.198Z,18.52
2022-12-01T04:33:59.729Z,17.70
2022-12-01T04:36:28.469Z,19.42
2022-12-01T04:38:57.114Z,19.77
2022-12-01T04:41:25.446Z,19.42
2022-12-01T04:43:54.723Z,19.23
2022-12-01T04:46:24.570Z,19.57
2022-12-01T04:48:53.113Z,19.13
2022-12-01T04:51:22.917Z,20.83
2022-12-01T04:53:51.631Z,20.88
2022-12-01T04:56:19.962Z,19.77
2022-12-01T04:58:48.686Z,19.93
2022-12-01T05:01:19.601Z,18.40
2022-12-01T05:03:50.382Z,19.60
2022-12-01T05:06:20.880Z,19.65
2022-12-01T05:08:51.530Z,20.40
2022-12-01T05:11:20.383Z,19.23
2022-12-01T05:13:50.066Z,20.83
2022-12-01T05:16:20.557Z,20.20
2022-12-01T05:18:50.551Z,19.67
2022-12-01T05:21:18.154Z,19.73
2022-12-01T05:23:46.522Z,20.23
2022-12-01T05:26:16.429Z,19.80
2022-12-01T05:28:44.971Z,20.77
2022-12-01T05:31:13.092Z,19.55
2022-12-01T05:33:41.808Z,19.38
2022-12-01T05:36:10.655Z,21.63
2022-12-01T05:38:39.185Z,20.33
2022-12-01T05:41:07.536Z,21.50
2022-12-01T05:43:37.291Z,19.92
2022-12-01T05:46:06.004Z,19.58
2022-12-01T05:48:35.036Z,19.30
2022-12-01T05:51:09.572Z,19.98
2022-12-01T05:53:38.673Z,18.83
2022-12-01T05:56:08.646Z,20.98
2022-12-01T05:58:39.312Z,21.58
2022-12-01T06:01:07.558Z,22.27
2022-12-01T06:03:36.123Z,22.35
2022-12-01T06:06:04.350Z,22.13
2022-12-01T06:08:32.683Z,21.23
2022-12-01T06:11:01.291Z,21.67
2022-12-01T06:13:30.060Z,22.37
2022-12-01T06:16:00.693Z,22.23
2022-12-01T06:18:31.669Z,21.23
2022-12-01T06:20:59.886Z,21.63
2022-12-01T06:23:30.565Z,23.23
2022-12-01T06:25:59.317Z,21.70
2022-12-01T06:28:27.841Z,21.48
2022-12-01T06:31:01.298Z,21.65
2022-12-01T06:33:35.177Z,22.05
2022-12-01T06:36:06.328Z,22.45
2022-12-01T06:38:37.106Z,21.80
2022-12-01T06:41:06.636Z,21.77
2022-12-01T06:43:37.881Z,22.30
2022-12-01T06:46:07.146Z,20.17
2022-12-01T06:48:37.045Z,21.23
2022-12-01T06:51:06.311Z,22.03
2022-12-01T06:53:34.899Z,22.02
2022-12-01T06:56:05.375Z,22.02
2022-12-01T06:58:34.776Z,23.10
2022-12-01T07:01:10.411Z,23.38
2022-12-01T07:03:41.167Z,21.33
2022-12-01T07:06:10.052Z,21.63
2022-12-01T07:08:38.958Z,21.58
2022-12-01T07:11:09.805Z,23.05
2022-12-01T07:13:39.339Z,22.67
2022-12-01T07:16:08.899Z,21.47
2022-12-01T07:18:38.836Z,21.17
2022-12-01T07:21:12.798Z,22.08
2022-12-01T07:23:42.661Z,21.70
2022-12-01T07:26:13.094Z,22.98
2022-12-01T07:28:42.201Z,22.33
2022-12-01T07:31:13.963Z,21.60
2022-12-01T07:33:43.142Z,22.10
2022-12-01T07:36:13.959Z,20.90
2022-12-01T07:38:43.246Z,21.23
2022-12-01T07:41:13.396Z,22.73
2022-12-01T07:43:43.097Z,20.25
2022-12-01T07:46:20.301Z,22.35
2022-12-01T07:48:51.778Z,22.33
2022-12-01T07:51:23.670Z,21.58
2022-12-01T07:53:54.044Z,22.67
2022-12-01T07:56:24.393Z,21.17
2022-12-01T07:58:53.114Z,22.58
2022-12-01T08:01:23.331Z,22.23
2022-12-01T08:03:54.283Z,20.65
2022-12-01T08:06:25.757Z,20.13
2022-12-01T08:08:54.678Z,20.60
2022-12-01T08:11:25.012Z,20.73
2022-12-01T08:13:54.960Z,21.40
2022-12-01T08:16:24.912Z,21.85
2022-12-01T08:18:54.678Z,22.03
2022-12-01T08:21:25.513Z,22.45
2022-12-01T08:23:55.923Z,23.33
2022-12-01T08:26:25.861Z,23.45
2022-12-01T08:28:54.717Z,22.17
2022-12-01T08:31:27.411Z,21.47
2022-12-01T08:33:56.620Z,21.85
2022-12-01T08:36:27.178Z,22.30
2022-12-01T08:38:57.322Z,23.33
2022-12-01T08:41:26.228Z,21.40
2022-12-01T08:43:58.361Z,24.57
2022-12-01T08:46:29.014Z,23.45
2022-12-01T08:48:58.246Z,23.88
2022-12-01T08:51:28.754Z,21.77
2022-12-01T08:53:58.917Z,22.00
2022-12-01T08:56:30.601Z,22.87
2022-12-01T08:58:59.745Z,23.33
2022-12-01T09:01:28.930Z,24.17
2022-12-01T09:04:09.166Z,22.33
2022-12-01T09:06:42.971Z,22.05
2022-12-01T09:09:14.190Z,22.20
2022-12-01T09:11:43.952Z,21.58
2022-12-01T09:14:13.559Z,22.65
2022-12-01T09:16:43.333Z,22.77
2022-12-01T09:19:13.573Z,23.90
2022-12-01T09:21:45.691Z,21.23
2022-12-01T09:24:16.589Z,22.40
2022-12-01T09:26:45.183Z,21.80
2022-12-01T09:29:16.636Z,22.92
2022-12-01T09:31:45.964Z,22.30
2022-12-01T09:34:16.613Z,22.60
2022-12-01T09:36:47.527Z,22.00
2022-12-01T09:39:18.527Z,23.33
2022-12-01T09:41:50.933Z,23.27
2022-12-01T09:44:31.715Z,23.52
2022-12-01T09:47:10.146Z,22.80
2022-12-01T09:49:49.931Z,22.23
2022-12-01T09:52:21.165Z,22.15
2022-12-01T09:54:50.428Z,21.90
2022-12-01T09:57:29.773Z,21.08
2022-12-01T10:00:00.283Z,19.73
2022-12-01T10:02:36.097Z,21.77
2022-12-01T10:05:11.162Z,21.67
2022-12-01T10:07:46.867Z,20.00
2022-12-01T10:10:28.971Z,20.45
2022-12-01T10:12:58.775Z,20.70
2022-12-01T10:15:36.634Z,21.17
2022-12-01T10:18:23.179Z,20.52
2022-12-01T10:20:57.495Z,20.15
2022-12-01T10:23:41.617Z,18.92
2022-12-01T10:26:16.269Z,18.33
2022-12-01T10:29:02.213Z,19.55
2022-12-01T10:31:35.886Z,18.50
2022-12-01T10:34:09.686Z,19.10
2022-12-01T10:36:38.556Z,17.67
2022-12-01T10:39:08.816Z,17.43
2022-12-01T10:41:39.775Z,16.30
2022-12-01T10:44:09.449Z,17.20
2022-12-01T10:46:43.280Z,17.50
2022-12-01T10:49:14.037Z,16.83
2022-12-01T10:51:52.951Z,17.30
2022-12-01T10:54:24.489Z,16.65
2022-12-01T10:56:58.751Z,15.65
2022-12-01T10:59:31.561Z,15.40
2022-12-01T11:02:03.338Z,15.90
2022-12-01T11:04:45.492Z,16.17
2022-12-01T11:07:20.748Z,15.30
2022-12-01T11:10:04.804Z,14.95
2022-12-01T11:12:35.514Z,16.08
2022-12-01T11:15:07.329Z,15.13
2022-12-01T11:17:38.491Z,15.07
2022-12-01T11:20:34.510Z,15.95
2022-12-01T11:23:28.547Z,16.05
2022-12-01T11:26:02.249Z,14.68
2022-12-01T11:28:32.159Z,15.23
2022-12-01T11:31:04.041Z,14.80
2022-12-01T11:33:41.211Z,15.07
2022-12-01T11:36:16.055Z,15.82
2022-12-01T11:38:45.279Z,14.60
2022-12-01T11:41:29.239Z,15.13
2022-12-01T11:44:01.891Z,13.97
2022-12-01T11:46:55.851Z,13.80
2022-12-01T11:49:47.102Z,15.02
2022-12-01T11:52:24.691Z,13.32
2022-12-01T11:54:59.241Z,13.63
2022-12-01T11:57:34.559Z,12.83
2022-12-01T12:00:23.204Z,13.07
2022-12-01T12:03:14.419Z,13.00
2022-12-01T12:06:39.439Z,12.88
2022-12-01T12:09:32.270Z,12.23
2022-12-01T12:12:12.677Z,12.87
2022-12-01T12:14:53.966Z,11.45
2022-12-01T12:17:40.056Z,11.93
2022-12-01T12:20:26.300Z,10.60
2022-12-01T12:23:07.885Z,11.43
2022-12-01T12:25:52.429Z,11.30
2022-12-01T12:28:33.099Z,11.85
2022-12-01T12:31:11.833Z,11.65
2022-12-01T12:34:07.184Z,11.18
2022-12-01T12:36:45.235Z,10.80
2022-12-01T12:39:31.344Z,11.63
2022-12-01T12:42:00.540Z,10.23
2022-12-01T12:44:44.569Z,9.48
2022-12-01T12:47:26.900Z,9.98
2022-12-01T12:50:05.018Z,9.75
2022-12-01T12:52:36.725Z,8.57
2022-12-01T12:55:14.218Z,9.27
2022-12-01T12:57:48.123Z,9.82
2022-12-01T13:00:19.480Z,10.60
2022-12-01T13:02:54.540Z,10.27
2022-12-01T13:05:28.662Z,10.53
2022-12-01T13:08:01.279Z,10.57
2022-12-01T13:10:39.097Z,10.10
2022-12-01T13:13:19.266Z,9.65
2022-12-01T13:15:50.008Z,8.73
2022-12-01T13:18:32.315Z,9.67
2022-12-01T13:21:04.977Z,9.38
2022-12-01T13:23:35.270Z,9.55
2022-12-01T13:26:09.346Z,8.70
2022-12-01T13:28:42.082Z,9.43
2022-12-01T13:31:13.447Z,8.23
2022-12-01T13:33:46.836Z,8.27
2022-12-01T13:36:45.015Z,9.00
2022-12-01T13:39:08.952Z,8.10
2022-12-01T13:41:39.963Z,8.68
2022-12-01T13:44:21.940Z,10.93
2022-12-01T13:46:58.574Z,10.35
2022-12-01T13:49:44.644Z,10.88
2022-12-01T13:52:29.163Z,10.32
2022-12-01T13:55:25.676Z,10.13
2022-12-01T13:58:27.161Z,10.57
2022-12-01T14:01:35.288Z,11.05
2022-12-01T14:04:28.391Z,11.98
2022-12-01T14:07:30.330Z,11.15
2022-12-01T14:10:23.663Z,12.15
2022-12-01T14:12:55.306Z,11.17
2022-12-01T14:15:33.347Z,12.20
2022-12-01T14:18:07.096Z,12.85
2022-12-01T14:20:45.003Z,13.18
2022-12-01T14:23:24.325Z,13.00
2022-12-01T14:26:07.225Z,13.20
2022-12-01T14:29:19.804Z,12.68
2022-12-01T14:32:21.556Z,12.40
2022-12-01T14:35:14.276Z,13.23
2022-12-01T14:37:49.368Z,13.80
2022-12-01T14:40:25.009Z,13.33
2022-12-01T14:43:16.125Z,13.25
2022-12-01T14:45:58.729Z,13.48
2022-12-01T14:48:35.173Z,13.13
2022-12-01T14:51:20.643Z,14.02
2022-12-01T14:53:52.211Z,13.27
2022-12-01T14:56:23.603Z,12.90
2022-12-01T14:58:56.637Z,14.18
2022-12-01T15:01:31.408Z,13.27
2022-12-01T15:04:03.160Z,12.85
2022-12-01T15:06:33.889Z,13.37
2022-12-01T15:12:00.268Z,13.32
2022-12-01T15:14:35.750Z,12.70
2022-12-01T15:17:06.296Z,13.43
2022-12-01T15:19:38.114Z,11.47
2022-12-01T15:22:15.977Z,12.35
2022-12-01T15:24:47.336Z,12.73
2022-12-01T15:27:27.442Z,12.40
2022-12-01T15:30:03.448Z,11.48
2022-12-01T15:32:35.566Z,10.13
2022-12-01T15:35:05.651Z,11.27
2022-12-01T15:37:42.663Z,10.48
2022-12-01T15:43:15.708Z,10.02
2022-12-01T15:45:52.515Z,8.50
2022-12-01T15:48:32.196Z,9.00
2022-12-01T15:51:06.252Z,9.00
2022-12-01T15:53:38.420Z,8.13
2022-12-01T15:56:10.098Z,8.05
2022-12-01T15:58:43.797Z,8.00
2022-12-01T16:01:16.528Z,8.70
2022-12-01T16:03:55.283Z,7.93
2022-12-01T16:06:28.416Z,8.38
2022-12-01T16:08:59.658Z,7.47
2022-12-01T16:11:29.614Z,8.27
2022-12-01T16:14:01.625Z,8.48
2022-12-01T16:16:43.726Z,8.50
2022-12-01T16:19:28.317Z,8.40
2022-12-01T16:22:01.334Z,9.38
2022-12-01T16:24:33.196Z,8.13
2022-12-01T16:27:04.524Z,7.70
2022-12-01T16:29:36.767Z,8.02
2022-12-01T16:32:21.591Z,8.32
2022-12-01T16:34:52.783Z,8.18
2022-12-01T16:37:22.837Z,8.23
2022-12-01T16:39:51.889Z,8.50
2022-12-01T16:42:22.278Z,8.95
2022-12-01T16:44:52.571Z,9.00
2022-12-01T16:47:25.446Z,8.25
2022-12-01T16:49:54.611Z,8.47
2022-12-01T16:55:38.812Z,8.48
2022-12-01T16:58:08.320Z,8.43
2022-12-01T17:00:37.330Z,8.55
2022-12-01T17:03:08.296Z,8.07
2022-12-01T17:05:38.323Z,8.50
2022-12-01T17:08:07.363Z,8.68
2022-12-01T17:10:41.779Z,9.52
2022-12-01T17:13:10.554Z,9.52
2022-12-01T17:15:41.929Z,9.23
2022-12-01T17:18:13.508Z,8.75
2022-12-01T17:20:43.140Z,8.73
2022-12-01T17:23:12.135Z,7.75
2022-12-01T17:25:42.101Z,7.55
2022-12-01T17:28:10.681Z,7.63
2022-12-01T17:30:39.486Z,7.63
2022-12-01T17:33:08.879Z,7.78
2022-12-01T17:35:40.563Z,8.10
2022-12-01T17:38:09.445Z,8.30
2022-12-01T17:40:37.966Z,8.03
2022-12-01T17:43:08.965Z,7.68
2022-12-01T17:45:42.157Z,8.02
2022-12-01T17:48:11.152Z,7.93
2022-12-01T17:50:40.935Z,7.70
2022-12-01T17:53:09.713Z,7.07
2022-12-01T17:55:40.730Z,7.10
2022-12-01T17:58:09.597Z,7.25
2022-12-01T18:00:38.282Z,6.65
2022-12-01T18:03:08.229Z,7.07
2022-12-01T18:05:36.945Z,6.77
2022-12-01T18:08:07.956Z,7.00
2022-12-01T18:10:36.920Z,6.57
2022-12-01T18:13:05.515Z,6.55
2022-12-01T18:15:35.153Z,5.68
2022-12-01T18:18:03.642Z,5.77
2022-12-01T18:20:32.723Z,5.85
2022-12-01T18:23:01.560Z,6.18
2022-12-01T18:25:32.120Z,6.03
2022-12-01T18:28:00.893Z,5.97
2022-12-01T18:30:29.886Z,4.93
2022-12-01T18:32:59.758Z,6.53
2022-12-01T18:35:31.990Z,5.38
2022-12-01T18:38:01.172Z,5.60
2022-12-01T18:40:29.738Z,5.70
2022-12-01T18:43:00.132Z,6.40
2022-12-01T18:45:28.990Z,5.57
2022-12-01T18:47:57.748Z,5.72
2022-12-01T18:50:26.516Z,5.55
2022-12-01T18:52:55.491Z,6.47
2022-12-01T18:55:23.951Z,5.53
2022-12-01T18:57:53.026Z,5.65
2022-12-01T19:00:23.557Z,5.38
2022-12-01T19:05:48.053Z,5.38
2022-12-01T19:08:17.343Z,5.53
2022-12-01T19:10:45.906Z,5.00
2022-12-01T19:13:14.983Z,5.82
2022-12-01T19:15:44.984Z,5.60
2022-12-01T19:18:13.970Z,5.50
2022-12-01T19:20:42.842Z,5.87
2022-12-01T19:23:11.639Z,5.70
2022-12-01T19:25:40.499Z,5.57
2022-12-01T19:28:09.809Z,5.20
2022-12-01T19:30:38.395Z,5.90
2022-12-01T19:33:08.847Z,6.13
2022-12-01T19:35:38.291Z,6.57
2022-12-01T19:38:07.138Z,6.03
2022-12-01T19:40:38.297Z,5.97
2022-12-01T19:43:07.376Z,6.13
2022-12-01T19:45:38.685Z,5.87
2022-12-01T19:48:09.617Z,6.78
2022-12-01T19:50:38.427Z,6.65
2022-12-01T19:53:07.362Z,7.35
2022-12-01T19:55:37.341Z,7.65
2022-12-01T19:58:06.558Z,7.87
2022-12-01T20:00:35.507Z,8.88
2022-12-01T20:03:04.599Z,9.82
2022-12-01T20:05:36.257Z,10.77
2022-12-01T20:08:05.736Z,10.77
2022-12-01T20:10:35.685Z,11.47
2022-12-01T20:13:04.810Z,11.93
2022-12-01T20:15:34.257Z,12.68
2022-12-01T20:18:03.025Z,12.75
2022-12-01T20:20:31.602Z,12.52
2022-12-01T20:23:02.070Z,12.50
2022-12-01T20:25:31.099Z,13.75
2022-12-01T20:27:59.626Z,14.50
2022-12-01T20:30:28.543Z,16.15
2022-12-01T20:32:57.095Z,15.32
2022-12-01T20:35:26.166Z,14.87
2022-12-01T20:37:55.031Z,14.98
2022-12-01T20:40:26.941Z,16.67
2022-12-01T20:42:55.791Z,15.85
2022-12-01T20:45:24.290Z,17.08
2022-12-01T20:47:53.284Z,17.43
2022-12-01T20:50:22.105Z,17.25
2022-12-01T20:52:50.903Z,18.20
2022-12-01T20:55:19.509Z,18.10
2022-12-01T20:57:49.931Z,18.10
2022-12-01T21:00:19.645Z,18.30
2022-12-01T21:02:48.529Z,18.70
2022-12-01T21:05:17.380Z,18.70
2022-12-01T21:07:45.940Z,18.35
2022-12-01T21:10:19.810Z,18.75
2022-12-01T21:13:12.098Z,19.10
2022-12-01T21:15:49.661Z,19.73
2022-12-01T21:18:23.375Z,19.23
2022-12-01T21:20:56.569Z,20.38
2022-12-01T21:23:28.699Z,19.08
2022-12-01T21:25:57.852Z,19.87
2022-12-01T21:28:28.716Z,19.25
2022-12-01T21:31:03.097Z,19.50
2022-12-01T21:33:33.906Z,20.70
2022-12-01T21:36:04.309Z,21.20
2022-12-01T21:38:33.414Z,20.80
2022-12-01T21:41:15.064Z,20.25
2022-12-01T21:43:45.757Z,21.08
2022-12-01T21:46:17.254Z,22.40
2022-12-01T21:48:47.259Z,23.58
2022-12-01T21:51:21.452Z,22.60
2022-12-01T21:53:52.793Z,22.67
2022-12-01T21:56:23.191Z,22.17
2022-12-01T21:58:53.710Z,23.70
2022-12-01T22:01:29.662Z,22.77
2022-12-01T22:04:02.476Z,21.80
2022-12-01T22:06:36.865Z,21.95
2022-12-01T22:09:14.740Z,23.50
2022-12-01T22:11:46.158Z,22.52
2022-12-01T22:14:20.606Z,22.42
2022-12-01T22:16:54.427Z,23.40
2022-12-01T22:19:31.961Z,23.92
2022-12-01T22:22:03.665Z,23.83
2022-12-01T22:24:40.653Z,23.38
2022-12-01T22:27:28.017Z,23.67
2022-12-01T22:30:03.335Z,22.80
2022-12-01T22:32:55.764Z,22.88
2022-12-01T22:35:30.432Z,23.58
2022-12-01T22:38:16.869Z,22.42
2022-12-01T22:40:56.602Z,21.63
2022-12-01T22:43:31.156Z,21.27
2022-12-01T22:46:27.832Z,22.90
2022-12-01T22:48:58.358Z,23.60
2022-12-01T22:51:43.623Z,24.08
2022-12-01T22:54:27.703Z,22.70
2022-12-01T22:57:04.586Z,22.13
2022-12-01T22:59:36.422Z,23.00
2022-12-01T23:02:20.942Z,22.15
2022-12-01T23:04:53.596Z,22.58
2022-12-01T23:07:32.014Z,22.85
2022-12-01T23:10:11.616Z,23.90
2022-12-01T23:12:41.059Z,23.30
2022-12-01T23:15:32.608Z,22.73
2022-12-01T23:18:13.314Z,23.70
2022-12-01T23:20:43.146Z,22.48
2022-12-01T23:23:15.256Z,21.83
2022-12-01T23:25:45.616Z,22.52
2022-12-01T23:28:15.402Z,22.83
2022-12-01T23:30:47.062Z,22.35
2022-12-01T23:33:20.731Z,23.45
2022-12-01T23:35:55.202Z,22.57
2022-12-01T23:38:27.674Z,21.55
2022-12-01T23:41:01.868Z,22.20
2022-12-01T23:43:34.464Z,23.85
2022-12-01T23:46:06.809Z,22.33
2022-12-01T23:48:41.358Z,22.37
2022-12-01T23:51:24.580Z,22.83
2022-12-01T23:53:54.903Z,21.45
2022-12-01T23:56:26.956Z,21.45
2022-12-01T23:58:58.398Z,22.08
